Time;durP1;ratioP1;P1;durP2;ratioP2;P2;SDS_P1;SDS_P2;PMS_P1;PMS_P2;Temp;Humidity;BMP_temperature;BMP_pressure;BME280_temperature;BME280_humidity;BME280_pressure;Samples;Min_cycle;Max_cycle;Signal;HPM_P1;HPM_P2
2022/06/05 00:01:03;;;;;;;2.77;2.40;;;14.80;99.90;14.80;101091.00;;;;4992433;28;92632;-68
2022/06/05 00:03:33;;;;;;;5.03;2.50;;;14.80;99.90;14.80;101085.00;;;;4992661;28;92212;-67
2022/06/05 00:06:27;;;;;;;2.50;2.30;;;14.80;99.90;14.80;101096.00;;;;4974191;28;92585;-68
2022/06/05 00:09:03;;;;;;;2.47;2.05;;;14.80;99.90;14.80;101088.00;;;;4959756;28;93358;-67
2022/06/05 00:12:01;;;;;;;2.88;2.67;;;14.70;99.90;14.80;101099.00;;;;4971925;28;95191;-67
2022/06/05 00:14:27;;;;;;;3.00;2.25;;;14.70;99.90;14.80;101087.00;;;;4986927;28;112863;-68
2022/06/05 00:16:52;;;;;;;3.13;2.60;;;14.70;99.90;14.80;101081.00;;;;4972984;28;92081;-67
2022/06/05 00:19:18;;;;;;;3.85;2.53;;;14.70;99.90;14.80;101086.00;;;;4992282;28;93121;-67
2022/06/05 00:21:44;;;;;;;2.78;2.58;;;14.70;99.90;14.80;101088.00;;;;4991521;28;94274;-67
2022/06/05 00:24:09;;;;;;;3.28;2.28;;;14.70;99.90;14.80;101083.00;;;;4991318;28;93484;-67
2022/06/05 00:27:19;;;;;;;2.72;2.20;;;14.70;99.90;14.70;101082.00;;;;4973367;28;108108;-67
2022/06/05 00:30:08;;;;;;;3.83;2.15;;;14.70;99.90;14.70;101085.00;;;;4934981;28;100273;-68
2022/06/05 00:32:45;;;;;;;3.10;2.30;;;14.70;99.90;14.70;101085.00;;;;5006328;28;92301;-68
2022/06/05 00:35:16;;;;;;;4.95;2.25;;;14.60;99.90;14.70;101079.00;;;;4973554;28;92208;-67
2022/06/05 00:38:20;;;;;;;1.80;1.70;;;14.70;99.90;14.70;101088.00;;;;4992089;28;92553;-67
2022/06/05 00:41:40;;;;;;;3.30;1.97;;;14.70;99.90;14.60;101082.00;;;;4970162;28;92615;-67
2022/06/05 00:44:11;;;;;;;2.35;1.90;;;14.60;99.90;14.60;101077.00;;;;4992709;28;91736;-66
2022/06/05 00:46:39;;;;;;;3.30;2.75;;;14.70;99.90;14.60;101080.00;;;;4991255;28;92501;-68
2022/06/05 00:49:06;;;;;;;2.03;1.77;;;14.50;99.90;14.60;101082.00;;;;4989516;28;110132;-67
2022/06/05 00:51:32;;;;;;;2.80;2.47;;;14.50;99.90;14.60;101087.00;;;;5002981;28;93520;-67
2022/06/05 00:53:59;;;;;;;3.05;2.08;;;14.50;99.90;14.50;101085.00;;;;5011709;28;115400;-67
2022/06/05 00:56:24;;;;;;;2.33;1.98;;;14.50;99.90;14.50;101081.00;;;;4976420;28;92589;-67
2022/06/05 00:58:52;;;;;;;1.83;1.73;;;14.50;99.90;14.50;101089.00;;;;4990950;28;109412;-67
2022/06/05 01:01:18;;;;;;;3.13;2.83;;;14.40;99.90;14.50;101092.00;;;;4992562;28;92708;-67
2022/06/05 01:03:44;;;;;;;2.33;2.13;;;14.40;99.90;14.40;101092.00;;;;4990222;28;122664;-67
2022/06/05 01:06:10;;;;;;;5.45;2.80;;;14.40;99.90;14.40;101099.00;;;;4991265;28;93115;-67
2022/06/05 01:08:35;;;;;;;2.65;2.30;;;14.30;99.90;14.30;101103.00;;;;4990890;28;110825;-67
2022/06/05 01:11:22;;;;;;;2.25;2.03;;;14.30;99.90;14.30;101096.00;;;;4990776;28;103759;-67
2022/06/05 01:14:05;;;;;;;2.70;2.50;;;14.30;99.90;14.20;101100.00;;;;5005650;28;111124;-67
2022/06/05 01:16:57;;;;;;;6.13;2.33;;;14.20;99.90;14.10;101091.00;;;;4991122;28;93796;-67
2022/06/05 01:19:53;;;;;;;3.33;2.65;;;14.10;99.90;14.10;101086.00;;;;5005543;28;101211;-67
2022/06/05 01:22:43;;;;;;;3.05;2.78;;;14.10;99.90;14.00;101074.00;;;;4972690;28;102122;-66
2022/06/05 01:25:44;;;;;;;2.67;2.40;;;14.00;99.90;13.90;101086.00;;;;4990646;28;92460;-67
2022/06/05 01:28:33;;;;;;;3.47;2.70;;;14.00;99.90;13.80;101088.00;;;;5004922;28;92078;-66
2022/06/05 01:31:18;;;;;;;3.10;2.37;;;13.90;99.90;13.80;101087.00;;;;5007062;28;92448;-67
2022/06/05 01:34:12;;;;;;;5.33;2.90;;;13.80;99.90;13.70;101087.00;;;;5005168;28;92563;-67
2022/06/05 01:37:07;;;;;;;2.93;1.93;;;13.80;99.90;13.70;101075.00;;;;4966292;28;94129;-66
2022/06/05 01:39:40;;;;;;;2.67;2.07;;;13.70;99.90;13.70;101072.00;;;;4986016;28;98256;-66
2022/06/05 01:42:15;;;;;;;3.70;2.10;;;13.70;99.90;13.60;101063.00;;;;5001038;28;99596;-66
2022/06/05 01:44:47;;;;;;;2.53;1.83;;;13.60;99.90;13.60;101059.00;;;;5005546;28;98966;-66
2022/06/05 01:47:33;;;;;;;2.43;2.30;;;13.50;99.90;13.50;101060.00;;;;4972659;28;94115;-66
2022/06/05 01:50:10;;;;;;;2.23;2.03;;;13.50;99.90;13.50;101063.00;;;;4996260;28;107811;-67
2022/06/05 01:52:53;;;;;;;2.37;2.17;;;13.50;99.90;13.50;101061.00;;;;5010786;28;103215;-66
2022/06/05 01:55:30;;;;;;;3.20;2.57;;;13.50;99.90;13.50;101061.00;;;;4986327;28;97829;-67
2022/06/05 01:58:17;;;;;;;2.87;2.57;;;13.50;99.90;13.40;101068.00;;;;4972046;28;99885;-67
2022/06/05 02:00:50;;;;;;;3.63;2.40;;;13.50;99.90;13.40;101064.00;;;;4971624;28;114041;-67
2022/06/05 02:03:23;;;;;;;2.40;2.20;;;13.40;99.90;13.40;101061.00;;;;4973078;28;91808;-67
2022/06/05 02:06:01;;;;;;;2.93;2.70;;;13.40;99.90;13.30;101062.00;;;;4991476;28;92818;-66
2022/06/05 02:08:50;;;;;;;4.53;2.67;;;13.30;99.90;13.20;101057.00;;;;5004500;28;102176;-67
2022/06/05 02:11:24;;;;;;;7.10;2.97;;;13.30;99.90;13.10;101044.00;;;;5005265;28;93207;-67
2022/06/05 02:13:55;;;;;;;3.53;2.87;;;13.20;99.90;13.00;101042.00;;;;4971535;28;101300;-66
2022/06/05 02:16:22;;;;;;;3.83;2.73;;;13.10;99.90;13.00;101049.00;;;;4989256;28;92547;-67
2022/06/05 02:18:48;;;;;;;4.03;2.70;;;13.00;99.90;12.90;101040.00;;;;4989199;28;93512;-67
2022/06/05 02:21:14;;;;;;;5.13;2.77;;;12.90;99.90;12.80;101040.00;;;;4990080;28;92265;-67
2022/06/05 02:23:41;;;;;;;3.87;2.47;;;12.90;99.90;12.80;101044.00;;;;5004345;28;109617;-67
2022/06/05 02:26:09;;;;;;;2.60;2.40;;;12.80;99.90;12.80;101052.00;;;;4991922;28;92749;-67
2022/06/05 02:28:37;;;;;;;3.20;2.83;;;12.80;99.90;12.70;101052.00;;;;4971684;28;91884;-66
2022/06/05 02:31:37;;;;;;;4.40;2.67;;;12.70;99.90;12.60;101047.00;;;;4990080;28;92610;-67
2022/06/05 02:34:27;;;;;;;3.47;3.00;;;12.70;99.90;12.60;101046.00;;;;5004452;28;93816;-67
2022/06/05 02:37:07;;;;;;;3.27;2.30;;;12.60;99.90;12.60;101061.00;;;;4971182;28;93025;-67
2022/06/05 02:39:49;;;;;;;3.80;2.33;;;12.60;99.90;12.50;101054.00;;;;4967758;28;113996;-67
2022/06/05 02:42:29;;;;;;;5.60;3.37;;;12.60;99.90;12.50;101053.00;;;;5004840;28;115133;-67
2022/06/05 02:45:13;;;;;;;4.13;3.67;;;12.50;99.90;12.50;101049.00;;;;4971664;28;92465;-67
2022/06/05 02:48:06;;;;;;;3.30;2.97;;;12.50;99.90;12.40;101038.00;;;;4990796;28;92594;-66
2022/06/05 02:50:59;;;;;;;4.00;2.90;;;12.50;99.90;12.40;101035.00;;;;4992406;28;92655;-66
2022/06/05 02:53:26;;;;;;;3.23;2.93;;;12.40;99.90;12.40;101033.00;;;;4988813;28;93350;-67
2022/06/05 02:55:51;;;;;;;3.70;2.83;;;12.40;99.90;12.40;101035.00;;;;4972472;28;91278;-67
2022/06/05 02:58:17;;;;;;;3.10;2.80;;;12.40;99.90;12.40;101039.00;;;;5004802;28;108499;-66
2022/06/05 03:03:27;;;;;;;3.50;2.77;;;12.40;99.90;12.40;101036.00;;;;4988048;28;110199;-66
2022/06/05 03:03:29;;;;;;;5.90;2.97;;;12.40;99.90;12.40;101026.00;;;;4988491;28;92849;-67
2022/06/05 03:05:54;;;;;;;3.33;2.03;;;12.40;99.90;12.40;101044.00;;;;4989625;28;100576;-66
2022/06/05 03:08:21;;;;;;;3.53;2.50;;;12.40;99.90;12.40;101044.00;;;;4989558;28;108886;-66
2022/06/05 03:10:47;;;;;;;3.40;3.03;;;12.40;99.90;12.40;101051.00;;;;4989246;28;93653;-67
2022/06/05 03:13:13;;;;;;;3.63;2.77;;;12.40;99.90;12.40;101055.00;;;;4988515;28;108441;-68
2022/06/05 03:15:41;;;;;;;4.07;3.53;;;12.40;99.90;12.40;101042.00;;;;4954372;28;102597;-67
2022/06/05 03:18:07;;;;;;;2.73;2.53;;;12.40;99.90;12.40;101059.00;;;;4990615;28;92870;-67
2022/06/05 03:20:34;;;;;;;3.13;2.30;;;12.40;99.90;12.40;101058.00;;;;4989416;28;91678;-66
2022/06/05 03:23:00;;;;;;;3.40;2.87;;;12.40;99.90;12.40;101047.00;;;;4989618;28;92499;-66
2022/06/05 03:25:26;;;;;;;3.13;2.23;;;12.40;99.90;12.40;101062.00;;;;4987491;28;92442;-67
2022/06/05 03:27:52;;;;;;;2.73;2.53;;;12.40;99.90;12.40;101045.00;;;;4989372;28;93388;-66
2022/06/05 03:30:18;;;;;;;4.33;3.10;;;12.40;99.90;12.40;101049.00;;;;4987919;28;120367;-66
2022/06/05 03:32:46;;;;;;;2.93;2.53;;;12.40;99.90;12.40;101059.00;;;;4988145;28;92746;-66
2022/06/05 03:35:14;;;;;;;3.87;2.93;;;12.40;99.90;12.40;101064.00;;;;4988294;28;92056;-67
2022/06/05 03:37:40;;;;;;;3.57;2.63;;;12.40;99.90;12.50;101060.00;;;;4989448;28;92310;-67
2022/06/05 03:40:13;;;;;;;2.77;2.53;;;12.40;99.90;12.50;101055.00;;;;4988643;28;122095;-67
2022/06/05 03:42:38;;;;;;;3.40;2.80;;;12.40;99.90;12.50;101055.00;;;;4989383;28;93060;-67
2022/06/05 03:45:05;;;;;;;2.70;2.50;;;12.50;99.90;12.50;101070.00;;;;4988469;28;109110;-67
2022/06/05 03:47:31;;;;;;;3.37;3.00;;;12.50;99.90;12.60;101058.00;;;;4989305;28;91940;-67
2022/06/05 03:49:56;;;;;;;3.73;2.33;;;12.50;99.90;12.60;101066.00;;;;4990887;28;123099;-67
2022/06/05 03:52:22;;;;;;;3.10;2.70;;;12.60;99.90;12.70;101063.00;;;;4991196;28;93476;-67
2022/06/05 03:54:48;;;;;;;3.33;3.00;;;12.60;99.90;12.70;101062.00;;;;4991654;28;110129;-67
2022/06/05 03:57:13;;;;;;;2.47;2.27;;;12.60;99.90;12.80;101054.00;;;;4992326;28;110270;-67
2022/06/05 03:59:39;;;;;;;3.00;2.80;;;12.70;99.90;12.80;101063.00;;;;4991687;28;120591;-67
2022/06/05 04:02:05;;;;;;;2.40;2.20;;;12.70;99.90;12.90;101059.00;;;;4990497;28;105269;-67
2022/06/05 04:04:31;;;;;;;4.13;3.37;;;12.80;99.90;13.00;101068.00;;;;4991488;28;110270;-67
2022/06/05 04:06:57;;;;;;;3.10;2.33;;;12.80;99.90;13.00;101057.00;;;;4993279;28;92976;-67
2022/06/05 04:09:23;;;;;;;8.67;2.80;;;12.90;99.90;13.10;101063.00;;;;4990952;28;121766;-67
2022/06/05 04:11:48;;;;;;;8.87;3.43;;;13.00;99.90;13.20;101067.00;;;;4990999;28;120848;-67
2022/06/05 04:14:14;;;;;;;3.23;2.53;;;13.10;99.90;13.30;101074.00;;;;4990932;28;109933;-67
2022/06/05 04:16:41;;;;;;;3.07;2.77;;;13.10;99.90;13.30;101063.00;;;;4991717;28;109789;-67
2022/06/05 04:19:07;;;;;;;2.73;2.53;;;13.30;99.90;13.40;101065.00;;;;4991571;28;122314;-67
2022/06/05 04:21:37;;;;;;;2.97;2.63;;;13.30;99.90;13.50;101060.00;;;;4991717;28;92757;-67
2022/06/05 04:24:04;;;;;;;3.13;2.83;;;13.40;99.90;13.60;101048.00;;;;4991914;28;92443;-67
2022/06/05 04:26:33;;;;;;;2.40;1.80;;;13.50;99.90;13.70;101039.00;;;;4993026;28;92008;-66
2022/06/05 04:28:59;;;;;;;3.80;2.63;;;13.60;99.90;13.80;101028.00;;;;4991084;28;114102;-66
2022/06/05 04:31:32;;;;;;;2.87;2.03;;;13.70;99.90;14.00;101020.00;;;;4990708;28;113369;-67
2022/06/05 04:34:03;;;;;;;3.63;2.30;;;13.80;99.90;14.10;101021.00;;;;4973217;28;91941;-66
2022/06/05 04:36:29;;;;;;;2.67;2.47;;;14.00;99.90;14.20;101020.00;;;;4987273;28;92070;-67
2022/06/05 04:38:55;;;;;;;2.57;2.00;;;14.10;99.90;14.30;101016.00;;;;4990268;28;121701;-67
2022/06/05 04:41:24;;;;;;;6.83;3.20;;;14.20;99.90;14.40;101014.00;;;;5005577;28;104776;-66
2022/06/05 04:43:51;;;;;;;2.88;2.25;;;14.30;99.90;14.60;101006.00;;;;4991086;28;92300;-67
2022/06/05 04:46:19;;;;;;;2.75;2.25;;;14.40;99.90;14.70;101007.00;;;;4991390;28;94792;-68
2022/06/05 04:48:45;;;;;;;3.50;3.00;;;14.60;99.90;14.80;101006.00;;;;5005852;28;106183;-67
2022/06/05 04:51:14;;;;;;;3.50;2.33;;;14.70;99.90;14.90;101008.00;;;;4960228;28;94351;-67
2022/06/05 04:53:40;;;;;;;3.42;2.78;;;14.80;99.90;15.00;101006.00;;;;4990088;28;92556;-67
2022/06/05 04:56:10;;;;;;;3.10;2.80;;;14.90;99.90;15.10;101010.00;;;;4973649;28;92449;-68
2022/06/05 04:58:36;;;;;;;2.75;2.55;;;15.00;99.90;15.20;101007.00;;;;5007020;28;91844;-65
2022/06/05 05:01:09;;;;;;;3.63;2.85;;;15.10;99.90;15.40;101004.00;;;;4973852;28;92570;-66
2022/06/05 05:03:35;;;;;;;3.72;2.92;;;15.20;99.90;15.50;101001.00;;;;4989832;28;92530;-67
2022/06/05 05:06:01;;;;;;;2.90;2.50;;;15.30;99.90;15.60;101006.00;;;;4990505;28;107738;-67
2022/06/05 05:08:26;;;;;;;3.97;2.80;;;15.50;99.90;15.70;101002.00;;;;4990542;28;122218;-66
2022/06/05 05:10:52;;;;;;;3.47;2.75;;;15.60;99.90;15.80;101001.00;;;;4989932;28;121617;-67
2022/06/05 05:13:17;;;;;;;3.38;2.42;;;15.70;99.90;15.90;101001.00;;;;4989333;28;111602;-66
2022/06/05 05:15:49;;;;;;;3.25;2.80;;;15.80;99.90;16.00;100983.00;;;;4971858;28;107657;-66
2022/06/05 05:18:15;;;;;;;5.10;2.50;;;15.90;99.90;16.20;100982.00;;;;4973643;28;92488;-69
2022/06/05 05:20:41;;;;;;;2.60;2.40;;;16.00;99.90;16.30;100979.00;;;;4989848;28;121672;-67
2022/06/05 05:23:07;;;;;;;2.92;2.60;;;16.10;99.90;16.40;100983.00;;;;5006527;28;91783;-66
2022/06/05 05:25:33;;;;;;;4.65;2.85;;;16.20;99.90;16.50;100971.00;;;;4990996;28;92543;-66
2022/06/05 05:27:58;;;;;;;2.85;2.47;;;16.30;99.90;16.60;100972.00;;;;4989300;28;122165;-67
2022/06/05 05:30:24;;;;;;;2.65;2.42;;;16.40;99.90;16.80;100973.00;;;;4972991;28;106117;-66
2022/06/05 05:32:56;;;;;;;4.13;2.38;;;16.50;99.90;16.90;100964.00;;;;4989567;28;110266;-65
2022/06/05 05:35:22;;;;;;;4.22;2.85;;;16.70;99.90;17.00;100968.00;;;;4990341;28;108286;-67
2022/06/05 05:37:48;;;;;;;3.85;2.47;;;16.80;99.90;17.20;100961.00;;;;4990330;28;92512;-67
2022/06/05 05:43:23;;;;;;;3.03;2.28;;;17.20;99.90;17.60;100967.00;;;;4925016;28;92686;-66
2022/06/05 05:45:49;;;;;;;3.80;2.88;;;17.40;99.90;17.80;100973.00;;;;4995915;28;107515;-66
2022/06/05 05:48:14;;;;;;;3.97;3.42;;;17.60;99.90;18.00;100982.00;;;;5001942;28;92849;-67
2022/06/05 05:50:45;;;;;;;2.20;2.10;;;17.70;99.90;18.20;100983.00;;;;5000884;28;92632;-67
2022/06/05 05:53:12;;;;;;;2.47;2.28;;;18.00;99.90;18.40;100992.00;;;;5003018;28;92505;-66
2022/06/05 05:55:38;;;;;;;5.05;2.80;;;18.10;99.90;18.60;100994.00;;;;4997446;28;93624;-67
2022/06/05 05:58:03;;;;;;;3.45;2.80;;;18.40;99.90;18.80;100990.00;;;;4987115;28;96327;-67
2022/06/05 06:00:29;;;;;;;4.57;2.90;;;18.60;99.90;19.00;100994.00;;;;4999955;28;93393;-66
2022/06/05 06:02:55;;;;;;;3.30;2.58;;;18.80;99.90;19.20;100995.00;;;;4998139;28;109880;-67
2022/06/05 06:05:20;;;;;;;4.78;3.30;;;18.90;99.90;19.30;100992.00;;;;4989212;28;110080;-67
2022/06/05 06:07:46;;;;;;;2.47;2.25;;;19.10;99.90;19.40;100985.00;;;;5004035;28;106918;-66
2022/06/05 06:10:13;;;;;;;5.28;3.22;;;19.20;99.90;19.40;100987.00;;;;5000100;28;121852;-67
2022/06/05 06:12:39;;;;;;;3.50;3.20;;;19.20;99.90;19.50;100982.00;;;;4998407;28;93107;-67
2022/06/05 06:15:05;;;;;;;4.30;3.15;;;19.30;99.90;19.60;100993.00;;;;5003393;28;94740;-67
2022/06/05 06:17:31;;;;;;;4.40;3.03;;;19.40;99.90;19.80;100994.00;;;;4996110;28;114965;-67
2022/06/05 06:19:57;;;;;;;4.70;3.53;;;19.60;99.90;20.00;100991.00;;;;4980379;28;121545;-67
2022/06/05 06:22:22;;;;;;;3.38;3.08;;;19.80;99.90;20.20;100991.00;;;;4997990;28;109715;-67
2022/06/05 06:24:48;;;;;;;3.17;2.88;;;20.00;99.90;20.40;100994.00;;;;5002716;28;107712;-67
2022/06/05 06:27:14;;;;;;;4.72;3.80;;;20.10;99.90;20.50;100995.00;;;;4997404;28;92609;-67
2022/06/05 06:29:40;;;;;;;3.45;2.75;;;20.30;99.90;20.70;100994.00;;;;5002533;28;112230;-68
2022/06/05 06:32:06;;;;;;;13.27;2.92;;;20.50;99.90;20.80;100991.00;;;;4994737;28;92003;-67
2022/06/05 06:34:32;;;;;;;4.18;2.72;;;20.60;99.90;21.00;100996.00;;;;5003368;28;98758;-67
2022/06/05 06:36:58;;;;;;;3.97;2.53;;;20.70;99.10;21.00;100989.00;;;;5000090;28;119159;-68
2022/06/05 06:39:24;;;;;;;3.05;2.85;;;20.80;99.30;21.20;100995.00;;;;4997259;28;120352;-67
2022/06/05 06:41:50;;;;;;;3.50;3.15;;;21.00;99.20;21.40;100990.00;;;;4990023;28;92480;-67
2022/06/05 06:44:17;;;;;;;3.28;2.97;;;21.10;98.70;21.60;100996.00;;;;4998694;28;108530;-67
2022/06/05 06:46:43;;;;;;;3.08;2.80;;;21.30;98.50;21.70;101002.00;;;;4996554;28;101841;-68
2022/06/05 06:49:15;;;;;;;3.08;2.70;;;21.50;97.30;21.80;100995.00;;;;5003568;28;121850;-67
2022/06/05 06:51:40;;;;;;;3.85;3.20;;;21.60;97.00;21.90;100985.00;;;;5001688;28;92698;-67
2022/06/05 06:54:06;;;;;;;3.10;2.50;;;21.70;96.70;22.10;100980.00;;;;4996489;28;107871;-67
2022/06/05 06:56:35;;;;;;;3.45;2.90;;;21.80;96.70;22.30;100977.00;;;;5002107;28;122321;-66
2022/06/05 06:59:02;;;;;;;4.57;3.25;;;22.00;96.20;22.50;100984.00;;;;5001159;28;94184;-67
2022/06/05 07:01:28;;;;;;;4.63;3.17;;;22.20;96.00;22.70;100979.00;;;;4978575;28;91810;-67
2022/06/05 07:03:54;;;;;;;3.70;2.90;;;22.40;94.90;22.80;100979.00;;;;4995279;28;107374;-67
2022/06/05 07:06:22;;;;;;;4.25;2.72;;;22.50;93.40;22.80;100986.00;;;;4975552;28;122741;-67
2022/06/05 07:08:49;;;;;;;3.13;2.83;;;22.60;92.80;22.90;100971.00;;;;5003115;28;93699;-67
2022/06/05 07:11:16;;;;;;;3.45;2.63;;;22.60;93.10;23.00;100978.00;;;;5017949;28;92823;-67
2022/06/05 07:13:42;;;;;;;3.97;2.63;;;22.70;93.40;23.30;100972.00;;;;5000647;28;92380;-67
2022/06/05 07:16:10;;;;;;;3.97;3.33;;;22.90;92.70;23.40;100961.00;;;;4998273;28;114640;-67
2022/06/05 07:18:38;;;;;;;8.88;3.28;;;23.00;92.10;23.50;100961.00;;;;5003526;28;100507;-67
2022/06/05 07:21:13;;;;;;;4.10;3.22;;;23.20;91.70;23.70;100947.00;;;;5002257;28;92438;-67
2022/06/05 07:23:45;;;;;;;3.78;3.13;;;23.40;91.40;23.90;100949.00;;;;5004644;28;92421;-67
2022/06/05 07:26:13;;;;;;;4.93;3.63;;;23.60;91.60;24.20;100946.00;;;;4997660;28;111845;-67
2022/06/05 07:28:39;;;;;;;4.50;3.22;;;23.80;90.90;24.40;100942.00;;;;5006790;28;92848;-67
2022/06/05 07:31:07;;;;;;;5.05;3.30;;;24.10;90.70;24.70;100944.00;;;;5000320;28;108366;-71
2022/06/05 07:33:34;;;;;;;4.03;3.70;;;24.30;90.10;24.90;100946.00;;;;5006521;28;98856;-70
2022/06/05 07:36:03;;;;;;;3.55;3.17;;;24.50;89.00;25.10;100933.00;;;;5005495;28;92725;-71
2022/06/05 07:38:32;;;;;;;3.30;3.00;;;24.80;87.60;25.30;100937.00;;;;5000601;28;92714;-70
2022/06/05 07:40:58;;;;;;;5.38;4.32;;;25.00;86.30;25.50;100941.00;;;;4982187;28;92568;-70
2022/06/05 07:43:24;;;;;;;4.13;3.35;;;25.20;81.70;25.50;100935.00;;;;4993333;28;97073;-70
2022/06/05 07:45:49;;;;;;;3.47;3.05;;;25.20;81.50;25.60;100940.00;;;;5000787;28;93615;-70
2022/06/05 07:48:19;;;;;;;4.40;3.03;;;25.40;82.00;25.80;100939.00;;;;5006102;28;121316;-70
2022/06/05 07:56:15;;;;;;;3.15;2.95;;;25.90;78.20;26.30;100932.00;;;;4997268;28;92205;-70
2022/06/05 07:58:41;;;;;;;5.00;3.70;;;26.00;76.00;26.40;100929.00;;;;5002868;28;123197;-70
2022/06/05 08:01:07;;;;;;;4.45;2.95;;;26.10;76.50;26.50;100917.00;;;;5007707;28;92434;-71
2022/06/05 08:03:36;;;;;;;3.45;2.80;;;26.20;75.20;26.60;100921.00;;;;4965764;28;100879;-70
2022/06/05 08:06:02;;;;;;;4.18;3.47;;;26.40;75.50;26.80;100926.00;;;;4998870;28;121252;-71
2022/06/05 08:08:28;;;;;;;3.88;3.47;;;26.50;75.40;27.10;100925.00;;;;5006250;28;113754;-71
2022/06/05 08:10:53;;;;;;;9.40;4.07;;;26.70;73.30;27.20;100934.00;;;;4980277;28;108139;-70
2022/06/05 08:13:19;;;;;;;4.53;3.58;;;26.90;72.40;27.30;100919.00;;;;4978438;28;106465;-72
2022/06/05 08:15:45;;;;;;;3.33;2.70;;;27.00;71.30;27.50;100928.00;;;;4999263;28;120907;-71
2022/06/05 08:18:11;;;;;;;4.38;2.92;;;27.20;70.80;27.70;100933.00;;;;4987840;28;105844;-71
2022/06/05 08:20:37;;;;;;;3.25;2.78;;;27.30;70.90;27.80;100925.00;;;;4980043;28;109735;-70
2022/06/05 08:23:03;;;;;;;3.72;3.40;;;27.50;67.50;27.90;100907.00;;;;5002184;28;92999;-71
2022/06/05 08:25:29;;;;;;;4.78;3.40;;;27.50;65.40;27.90;100912.00;;;;4979733;28;120650;-71
2022/06/05 08:27:54;;;;;;;5.47;3.72;;;27.60;64.50;28.00;100914.00;;;;5005303;28;121831;-72
2022/06/05 08:30:20;;;;;;;3.80;2.70;;;27.70;65.00;28.10;100901.00;;;;4987403;28;107948;-72
2022/06/05 08:32:46;;;;;;;3.83;3.45;;;27.80;62.90;28.20;100897.00;;;;5005275;28;92929;-71
2022/06/05 08:35:11;;;;;;;3.60;2.95;;;27.80;62.80;28.20;100896.00;;;;4994624;28;123415;-72
2022/06/05 08:43:40;;;;;;;2.92;2.15;;;28.20;62.40;28.70;100887.00;;;;4975892;28;91976;-71
2022/06/05 08:46:23;;;;;;;2.53;2.33;;;28.30;60.40;28.70;100876.00;;;;4992017;28;93908;-72
2022/06/05 08:49:00;;;;;;;3.80;2.33;;;28.40;59.60;28.80;100870.00;;;;4987550;28;92801;-73
2022/06/05 08:52:18;;;;;;;3.08;2.67;;;28.50;59.10;28.90;100874.00;;;;4969030;28;92555;-72
2022/06/05 08:55:14;;;;;;;2.80;2.05;;;28.60;57.00;29.10;100874.00;;;;4997619;28;100255;-72
2022/06/05 08:57:52;;;;;;;2.88;2.40;;;28.70;56.40;29.10;100871.00;;;;4986227;28;92954;-72
2022/06/05 09:00:27;;;;;;;3.45;2.60;;;28.80;54.30;29.10;100869.00;;;;4984173;28;92844;-71
2022/06/05 09:03:22;;;;;;;3.55;2.63;;;28.80;53.60;29.10;100868.00;;;;4986715;28;101648;-71
2022/06/05 09:06:06;;;;;;;2.47;2.28;;;28.80;53.60;29.30;100868.00;;;;4994073;28;92555;-72
2022/06/05 09:08:37;;;;;;;2.90;2.25;;;28.90;53.80;29.30;100859.00;;;;4987954;28;93053;-71
2022/06/05 09:11:14;;;;;;;2.90;2.70;;;28.90;52.60;29.30;100852.00;;;;4983222;28;92522;-71
2022/06/05 09:13:58;;;;;;;2.38;2.22;;;29.00;51.20;29.30;100852.00;;;;4970295;28;92580;-71
2022/06/05 09:16:29;;;;;;;3.05;2.72;;;28.90;51.00;29.10;100847.00;;;;5013990;28;93487;-70
2022/06/05 09:19:29;;;;;;;2.97;2.40;;;28.80;50.60;29.10;100852.00;;;;4987931;28;94629;-72
2022/06/05 09:22:30;;;;;;;3.25;2.65;;;28.80;49.90;29.20;100848.00;;;;4983145;28;92324;-71
2022/06/05 09:25:08;;;;;;;2.78;2.33;;;28.70;49.70;29.20;100847.00;;;;4998884;28;92994;-70
2022/06/05 09:28:07;;;;;;;2.90;2.67;;;28.80;49.70;29.30;100832.00;;;;5005905;28;93588;-72
2022/06/05 09:30:51;;;;;;;2.90;2.22;;;28.90;50.50;29.40;100837.00;;;;4981900;28;95557;-71
2022/06/05 09:33:35;;;;;;;1.95;1.83;;;29.00;48.20;29.40;100844.00;;;;4984186;28;92923;-72
2022/06/05 09:36:09;;;;;;;2.00;1.80;;;28.90;48.50;29.40;100826.00;;;;5015473;28;91758;-70
2022/06/05 09:38:44;;;;;;;2.72;1.88;;;29.00;48.50;29.70;100822.00;;;;4982382;28;99698;-71
2022/06/05 09:41:18;;;;;;;2.20;2.00;;;29.10;48.60;29.80;100828.00;;;;5000883;28;107892;-71
2022/06/05 09:44:07;;;;;;;2.47;2.13;;;29.40;47.50;29.90;100846.00;;;;4983068;28;92995;-70
2022/06/05 09:46:48;;;;;;;4.43;1.88;;;29.40;47.00;29.90;100843.00;;;;5006100;28;95495;-70
2022/06/05 09:49:18;;;;;;;2.65;2.30;;;29.50;47.40;30.00;100831.00;;;;4987746;28;92729;-72
2022/06/05 09:51:45;;;;;;;3.22;2.30;;;29.50;46.60;30.20;100832.00;;;;4978707;28;93021;-72
2022/06/05 09:54:35;;;;;;;2.20;1.90;;;29.70;47.30;30.40;100836.00;;;;5003987;28;92684;-71
2022/06/05 10:00:45;;;;;;;2.42;2.17;;;30.00;46.80;30.60;100826.00;;;;4982552;28;92350;-71
2022/06/05 10:03:22;;;;;;;1.95;1.80;;;30.10;45.30;30.60;100815.00;;;;4969954;28;94803;-71
2022/06/05 10:06:14;;;;;;;1.98;1.63;;;30.10;45.80;30.50;100822.00;;;;5000301;28;104091;-72
2022/06/05 10:08:52;;;;;;;2.97;2.22;;;30.10;44.00;30.30;100814.00;;;;5005069;28;92480;-71
2022/06/05 10:12:04;;;;;;;2.97;2.75;;;29.90;44.20;29.90;100821.00;;;;4983404;28;93665;-71
2022/06/05 10:14:44;;;;;;;2.60;2.20;;;29.70;44.80;29.70;100825.00;;;;4980297;28;92507;-71
2022/06/05 10:17:30;;;;;;;2.20;1.80;;;29.40;45.30;29.60;100809.00;;;;4991850;28;92314;-71
2022/06/05 10:20:30;;;;;;;1.95;1.85;;;29.20;44.80;29.50;100819.00;;;;4984161;28;92535;-71
2022/06/05 10:23:58;;;;;;;2.75;2.47;;;29.10;44.80;29.50;100815.00;;;;5011942;28;97597;-71
2022/06/05 10:26:33;;;;;;;2.35;1.90;;;29.00;45.00;29.60;100811.00;;;;4954622;28;94694;-71
2022/06/05 10:29:20;;;;;;;2.67;2.47;;;29.10;46.30;29.80;100817.00;;;;5000886;28;111150;-72
2022/06/05 10:31:56;;;;;;;2.88;1.90;;;29.30;46.10;29.80;100810.00;;;;4976298;28;92277;-71
2022/06/05 10:34:49;;;;;;;2.17;1.98;;;29.30;46.30;30.00;100807.00;;;;4983524;28;101366;-73
2022/06/05 10:37:49;;;;;;;2.45;1.85;;;29.40;45.20;30.20;100805.00;;;;4973710;28;94730;-71
2022/06/05 10:40:32;;;;;;;1.60;1.50;;;29.60;43.80;30.20;100797.00;;;;4983561;28;111254;-73
2022/06/05 10:43:16;;;;;;;1.95;1.70;;;29.70;44.20;30.10;100800.00;;;;4978797;28;92677;-71
2022/06/05 10:45:51;;;;;;;2.08;1.90;;;29.70;44.50;30.20;100792.00;;;;4979851;28;92061;-72
2022/06/05 10:48:41;;;;;;;4.72;1.73;;;29.60;44.60;30.20;100780.00;;;;4983054;28;101593;-71
2022/06/05 10:51:35;;;;;;;1.40;1.30;;;29.80;43.50;30.10;100790.00;;;;5004895;28;92426;-72
2022/06/05 10:54:27;;;;;;;7.15;1.65;;;29.70;42.70;30.20;100787.00;;;;4967265;28;92644;-71
2022/06/05 10:57:25;;;;;;;1.45;1.35;;;29.70;43.00;30.20;100789.00;;;;4963960;28;92119;-74
2022/06/05 11:00:19;;;;;;;1.98;1.73;;;29.70;42.70;30.50;100784.00;;;;4984254;28;91841;-71
2022/06/05 11:03:11;;;;;;;1.88;1.77;;;29.90;42.70;30.60;100778.00;;;;5013091;28;92912;-71
2022/06/05 11:06:04;;;;;;;3.28;2.08;;;30.00;42.60;30.70;100767.00;;;;4981069;28;92384;-72
2022/06/05 11:08:57;;;;;;;2.90;2.03;;;30.10;42.00;31.10;100766.00;;;;4996006;28;93779;-72
2022/06/05 11:15:07;;;;;;;3.70;1.88;;;30.60;41.60;31.40;100781.00;;;;4993023;28;92722;-72
2022/06/05 11:18:01;;;;;;;3.13;1.98;;;30.80;41.30;31.60;100768.00;;;;4984163;28;92389;-72
2022/06/05 11:20:27;;;;;;;3.05;1.75;;;31.00;41.10;31.70;100766.00;;;;5007986;28;100038;-72
2022/06/05 11:23:07;;;;;;;2.00;1.80;;;31.00;41.30;31.50;100756.00;;;;4960576;28;104644;-70
2022/06/05 11:25:51;;;;;;;2.63;2.28;;;31.00;40.50;31.40;100760.00;;;;4987445;28;92795;-73
2022/06/05 11:28:52;;;;;;;1.65;1.30;;;30.90;40.60;31.70;100744.00;;;;4977718;28;104927;-72
2022/06/05 11:31:39;;;;;;;1.77;1.40;;;31.00;40.60;32.00;100734.00;;;;4977372;28;94638;-71
2022/06/05 11:34:22;;;;;;;1.38;1.27;;;31.30;40.80;32.30;100715.00;;;;5004020;28;113868;-72
2022/06/05 11:36:53;;;;;;;2.33;1.60;;;31.60;40.00;32.20;100717.00;;;;4991108;28;104434;-72